Time;durP1;ratioP1;P1;durP2;ratioP2;P2;SDS_P1;SDS_P2;PMS_P1;PMS_P2;Temp;Humidity;BMP_temperature;BMP_pressure;BME280_temperature;BME280_humidity;BME280_pressure;Samples;Min_cycle;Max_cycle;Signal;HPM_P1;HPM_P2
2023/04/01 00:02:18;;;;;;;2.10;0.70;;;;;;;;;;5015492;28;20325;-82
2023/04/01 00:04:44;;;;;;;1.50;0.90;;;;;;;;;;5015137;28;20411;-82
2023/04/01 00:07:11;;;;;;;5.18;1.67;;;;;;;;;;5015740;28;20182;-82
2023/04/01 00:09:37;;;;;;;0.98;0.55;;;;;;;;;;5015271;28;20207;-82
2023/04/01 00:12:04;;;;;;;1.02;0.60;;;;;;;;;;5015540;28;20182;-82
2023/04/01 00:14:30;;;;;;;1.55;0.70;;;;;;;;;;5015167;28;20170;-82
2023/04/01 00:16:56;;;;;;;3.53;1.15;;;;;;;;;;5015217;28;20179;-82
2023/04/01 00:19:22;;;;;;;2.20;0.80;;;;;;;;;;5015219;28;20187;-81
2023/04/01 00:21:48;;;;;;;2.45;0.90;;;;;;;;;;5014846;28;20510;-81
2023/04/01 00:24:14;;;;;;;0.90;0.60;;;;;;;;;;5015073;28;20190;-82
2023/04/01 00:26:42;;;;;;;2.00;1.00;;;;;;;;;;5015561;28;20460;-81
2023/04/01 00:29:08;;;;;;;2.30;0.70;;;;;;;;;;5015129;28;20207;-81
2023/04/01 00:31:34;;;;;;;1.90;0.77;;;;;;;;;;5014564;28;20179;-82
2023/04/01 00:34:00;;;;;;;1.27;0.70;;;;;;;;;;5015108;28;20175;-81
2023/04/01 00:36:26;;;;;;;2.47;0.87;;;;;;;;;;5015060;28;20182;-82
2023/04/01 00:38:52;;;;;;;2.40;0.73;;;;;;;;;;5014478;28;20405;-82
2023/04/01 00:41:19;;;;;;;1.93;0.70;;;;;;;;;;5015371;28;20418;-82
2023/04/01 00:43:46;;;;;;;1.80;0.80;;;;;;;;;;5014760;28;20761;-82
2023/04/01 00:46:12;;;;;;;1.05;0.50;;;;;;;;;;4997488;28;20209;-82
2023/04/01 00:48:40;;;;;;;1.83;0.90;;;;;;;;;;5015061;28;20204;-81
2023/04/01 00:51:14;;;;;;;0.95;0.50;;;;;;;;;;5014901;28;20225;-82
2023/04/01 00:53:42;;;;;;;1.50;0.60;;;;;;;;;;5015000;28;20177;-82
2023/04/01 00:56:12;;;;;;;1.58;0.70;;;;;;;;;;5015466;28;20204;-81
2023/04/01 00:58:40;;;;;;;1.20;0.60;;;;;;;;;;5015025;28;20266;-82
2023/04/01 01:01:06;;;;;;;1.92;0.70;;;;;;;;;;5014302;28;20191;-82
2023/04/01 01:03:32;;;;;;;1.35;0.60;;;;;;;;;;5014659;28;20190;-82
2023/04/01 01:06:23;;;;;;;1.20;0.60;;;;;;;;;;5015148;28;20183;-82
2023/04/01 01:08:57;;;;;;;0.60;0.50;;;;;;;;;;5005724;28;20572;-82
2023/04/01 01:11:33;;;;;;;1.45;0.57;;;;;;;;;;5015409;28;20179;-81
2023/04/01 01:14:05;;;;;;;1.13;0.50;;;;;;;;;;5015138;28;20179;-82
2023/04/01 01:16:35;;;;;;;0.70;0.50;;;;;;;;;;5017587;28;20186;-81
2023/04/01 01:19:24;;;;;;;3.10;0.93;;;;;;;;;;5025758;28;20587;-82
2023/04/01 01:21:50;;;;;;;0.60;0.50;;;;;;;;;;5024165;28;20544;-81
2023/04/01 01:24:35;;;;;;;2.65;0.70;;;;;;;;;;5025303;28;20190;-81
2023/04/01 01:27:03;;;;;;;2.50;0.50;;;;;;;;;;5031090;28;20174;-81
2023/04/01 01:29:44;;;;;;;0.70;0.50;;;;;;;;;;5036203;28;20237;-81
2023/04/01 01:32:19;;;;;;;1.02;0.50;;;;;;;;;;5038682;28;20268;-81
2023/04/01 01:34:55;;;;;;;0.80;0.60;;;;;;;;;;5038240;28;20173;-81
2023/04/01 01:37:23;;;;;;;1.23;0.60;;;;;;;;;;5038605;28;20672;-82
2023/04/01 01:39:51;;;;;;;0.50;0.40;;;;;;;;;;5038301;28;20533;-81
2023/04/01 01:42:18;;;;;;;0.63;0.50;;;;;;;;;;5038422;28;20583;-82
2023/04/01 01:44:46;;;;;;;0.70;0.50;;;;;;;;;;5037806;28;20174;-82
2023/04/01 01:47:12;;;;;;;1.77;0.70;;;;;;;;;;5038103;28;20178;-82
2023/04/01 01:49:40;;;;;;;1.60;0.60;;;;;;;;;;5037139;28;20220;-83
2023/04/01 01:52:06;;;;;;;0.70;0.50;;;;;;;;;;5037836;28;20177;-82
2023/04/01 01:54:32;;;;;;;0.73;0.50;;;;;;;;;;5037616;28;20238;-82
2023/04/01 01:57:04;;;;;;;0.60;0.50;;;;;;;;;;5037521;28;20185;-82
2023/04/01 01:59:30;;;;;;;0.60;0.50;;;;;;;;;;5037345;28;20178;-82
2023/04/01 02:01:57;;;;;;;0.70;0.50;;;;;;;;;;5036925;28;20637;-82
2023/04/01 02:04:23;;;;;;;2.03;0.50;;;;;;;;;;5037075;28;20532;-82
2023/04/01 02:07:01;;;;;;;1.33;0.40;;;;;;;;;;5037151;28;20174;-83
2023/04/01 02:09:28;;;;;;;2.00;0.80;;;;;;;;;;5019293;28;20210;-83
2023/04/01 02:11:59;;;;;;;0.80;0.50;;;;;;;;;;5036957;28;20170;-83
2023/04/01 02:14:27;;;;;;;0.70;0.50;;;;;;;;;;5037108;28;20642;-83
2023/04/01 02:17:08;;;;;;;0.70;0.50;;;;;;;;;;5036928;28;20619;-83
2023/04/01 02:19:38;;;;;;;1.50;0.50;;;;;;;;;;5037004;28;20252;-83
2023/04/01 02:22:07;;;;;;;1.67;0.55;;;;;;;;;;5036967;28;20166;-82
2023/04/01 02:24:34;;;;;;;0.70;0.50;;;;;;;;;;5036806;28;20186;-83
2023/04/01 02:27:00;;;;;;;0.88;0.55;;;;;;;;;;5018574;28;20178;-83
2023/04/01 02:29:26;;;;;;;1.27;0.50;;;;;;;;;;5037063;28;20299;-83
2023/04/01 02:31:53;;;;;;;1.27;0.63;;;;;;;;;;5036358;28;20504;-83
2023/04/01 02:34:20;;;;;;;1.35;0.60;;;;;;;;;;5037088;28;20473;-83
2023/04/01 02:36:47;;;;;;;0.98;0.50;;;;;;;;;;5036178;28;20174;-83
2023/04/01 02:39:14;;;;;;;0.90;0.50;;;;;;;;;;5036554;28;20235;-82
2023/04/01 02:41:41;;;;;;;1.80;0.65;;;;;;;;;;5035329;28;20178;-82
2023/04/01 02:44:07;;;;;;;0.70;0.52;;;;;;;;;;5036862;28;20178;-82
2023/04/01 02:46:33;;;;;;;0.70;0.52;;;;;;;;;;5036682;28;20185;-82
2023/04/01 02:48:59;;;;;;;2.90;1.25;;;;;;;;;;5036376;28;20284;-82
2023/04/01 02:51:26;;;;;;;0.80;0.50;;;;;;;;;;5036589;28;20256;-82
2023/04/01 02:53:52;;;;;;;0.60;0.50;;;;;;;;;;5018810;28;20416;-82
2023/04/01 02:56:19;;;;;;;1.15;0.50;;;;;;;;;;5036387;28;20512;-82
2023/04/01 02:58:45;;;;;;;0.93;0.68;;;;;;;;;;5035909;28;20178;-82
2023/04/01 03:01:11;;;;;;;1.00;0.60;;;;;;;;;;5036590;28;20206;-81
2023/04/01 03:03:37;;;;;;;1.73;0.60;;;;;;;;;;5036474;28;20515;-82
2023/04/01 03:06:10;;;;;;;0.80;0.50;;;;;;;;;;5018535;28;20894;-82
2023/04/01 03:08:36;;;;;;;1.17;0.60;;;;;;;;;;5036497;28;20216;-81
2023/04/01 03:11:02;;;;;;;0.97;0.50;;;;;;;;;;5036608;28;20202;-82
2023/04/01 03:13:28;;;;;;;0.60;0.40;;;;;;;;;;5036902;28;20401;-82
2023/04/01 03:15:54;;;;;;;0.80;0.73;;;;;;;;;;5035970;28;20185;-82
2023/04/01 03:18:21;;;;;;;0.60;0.50;;;;;;;;;;5036287;28;20268;-81
2023/04/01 03:20:47;;;;;;;1.08;0.60;;;;;;;;;;5035752;28;20170;-82
2023/04/01 03:23:13;;;;;;;0.60;0.50;;;;;;;;;;5036319;28;20174;-81
2023/04/01 03:25:39;;;;;;;0.70;0.55;;;;;;;;;;5035942;28;20519;-82
2023/04/01 03:28:05;;;;;;;0.60;0.50;;;;;;;;;;5035512;28;20642;-82
2023/04/01 03:30:31;;;;;;;0.70;0.50;;;;;;;;;;5036097;28;20264;-81
2023/04/01 03:32:59;;;;;;;1.00;0.60;;;;;;;;;;5035623;28;20441;-82
2023/04/01 03:35:25;;;;;;;0.85;0.50;;;;;;;;;;5035717;28;20166;-81
2023/04/01 03:37:52;;;;;;;0.60;0.50;;;;;;;;;;5035752;28;20175;-82
2023/04/01 03:40:18;;;;;;;0.85;0.50;;;;;;;;;;5035996;28;20174;-82
2023/04/01 03:42:44;;;;;;;1.05;0.50;;;;;;;;;;5035572;28;20240;-82
2023/04/01 03:45:14;;;;;;;1.23;0.50;;;;;;;;;;5035648;28;20660;-82
2023/04/01 03:47:40;;;;;;;0.70;0.43;;;;;;;;;;5035707;28;20597;-81
2023/04/01 03:50:07;;;;;;;2.13;0.50;;;;;;;;;;5035165;28;20724;-82
2023/04/01 03:52:33;;;;;;;1.05;0.50;;;;;;;;;;5035220;28;20175;-82
2023/04/01 03:55:00;;;;;;;1.25;0.93;;;;;;;;;;5034965;28;20178;-82
2023/04/01 03:57:26;;;;;;;0.70;0.50;;;;;;;;;;5035822;28;20186;-82
2023/04/01 03:59:52;;;;;;;1.48;0.50;;;;;;;;;;5035053;28;20185;-82
2023/04/01 04:02:18;;;;;;;0.70;0.50;;;;;;;;;;5035016;28;20233;-82
2023/04/01 04:04:44;;;;;;;0.60;0.50;;;;;;;;;;5035215;28;20407;-83
2023/04/01 04:07:10;;;;;;;0.60;0.50;;;;;;;;;;5035497;28;20435;-82
2023/04/01 04:09:36;;;;;;;0.70;0.60;;;;;;;;;;5035452;28;20206;-82
2023/04/01 04:12:02;;;;;;;0.60;0.50;;;;;;;;;;5034858;28;20193;-81
2023/04/01 04:14:28;;;;;;;0.70;0.50;;;;;;;;;;5035157;28;20408;-81
2023/04/01 04:16:54;;;;;;;0.70;0.50;;;;;;;;;;5035058;28;20615;-81
2023/04/01 04:19:20;;;;;;;0.70;0.50;;;;;;;;;;5034827;28;20420;-81
2023/04/01 04:21:46;;;;;;;1.67;0.53;;;;;;;;;;5034775;28;20412;-82
2023/04/01 04:24:12;;;;;;;2.93;0.60;;;;;;;;;;5035094;28;20458;-82
2023/04/01 04:26:38;;;;;;;1.37;0.50;;;;;;;;;;5035157;28;20830;-82
2023/04/01 04:29:04;;;;;;;0.90;0.53;;;;;;;;;;5034063;28;20518;-83
2023/04/01 04:31:30;;;;;;;0.70;0.50;;;;;;;;;;5034310;28;20410;-83
2023/04/01 04:33:56;;;;;;;0.88;0.60;;;;;;;;;;5016357;28;20413;-84
2023/04/01 04:36:22;;;;;;;0.80;0.50;;;;;;;;;;5034229;28;20185;-83
2023/04/01 04:38:49;;;;;;;1.80;0.60;;;;;;;;;;5016644;28;20190;-84
2023/04/01 04:41:17;;;;;;;0.70;0.50;;;;;;;;;;5016798;28;20232;-83
2023/04/01 04:43:48;;;;;;;1.52;0.60;;;;;;;;;;5034478;28;20181;-83
2023/04/01 04:46:14;;;;;;;0.75;0.60;;;;;;;;;;5034238;28;20527;-84
2023/04/01 04:48:41;;;;;;;0.70;0.50;;;;;;;;;;5034036;28;20300;-83
2023/04/01 04:51:07;;;;;;;1.80;0.60;;;;;;;;;;5000164;28;20673;-83
2023/04/01 04:53:33;;;;;;;1.00;0.50;;;;;;;;;;5034270;28;20182;-82
2023/04/01 04:55:59;;;;;;;2.65;0.75;;;;;;;;;;5034449;28;20185;-82
2023/04/01 04:58:26;;;;;;;2.53;0.57;;;;;;;;;;5016916;28;20230;-82
2023/04/01 05:00:52;;;;;;;0.60;0.50;;;;;;;;;;5016876;28;20631;-82
2023/04/01 05:03:18;;;;;;;0.70;0.50;;;;;;;;;;5034812;28;20185;-82
2023/04/01 05:05:53;;;;;;;2.58;0.70;;;;;;;;;;5037788;28;20170;-82
2023/04/01 05:08:20;;;;;;;1.23;0.60;;;;;;;;;;5038526;28;20205;-82
2023/04/01 05:10:46;;;;;;;0.60;0.50;;;;;;;;;;5038033;28;20629;-87
2023/04/01 05:13:12;;;;;;;1.95;0.70;;;;;;;;;;5038646;28;20181;-82
2023/04/01 05:15:38;;;;;;;1.77;0.70;;;;;;;;;;5038096;28;20669;-82
2023/04/01 05:18:04;;;;;;;1.05;0.93;;;;;;;;;;5038001;28;20268;-82
2023/04/01 05:20:30;;;;;;;1.38;0.63;;;;;;;;;;5038108;28;20178;-83
2023/04/01 05:22:57;;;;;;;2.47;0.60;;;;;;;;;;5037730;28;20236;-83
2023/04/01 05:25:23;;;;;;;1.00;0.55;;;;;;;;;;5037973;28;20192;-82
2023/04/01 05:27:49;;;;;;;1.03;0.50;;;;;;;;;;5037891;28;20535;-84
2023/04/01 05:30:15;;;;;;;0.87;0.60;;;;;;;;;;5037641;28;20484;-83
2023/04/01 05:32:41;;;;;;;2.78;0.60;;;;;;;;;;5037732;28;20432;-83
2023/04/01 05:35:07;;;;;;;0.80;0.70;;;;;;;;;;5037706;28;20214;-83
2023/04/01 05:37:36;;;;;;;2.08;0.70;;;;;;;;;;5037904;28;20205;-83
2023/04/01 05:40:03;;;;;;;1.23;0.60;;;;;;;;;;5037429;28;20186;-83
2023/04/01 05:42:29;;;;;;;1.75;0.88;;;;;;;;;;5037710;28;20608;-83
2023/04/01 05:44:55;;;;;;;1.20;0.70;;;;;;;;;;5037854;28;20536;-83
2023/04/01 05:47:21;;;;;;;1.98;0.60;;;;;;;;;;5037940;28;20335;-82
2023/04/01 05:49:47;;;;;;;2.22;0.90;;;;;;;;;;5038167;28;20214;-82
2023/04/01 05:52:13;;;;;;;1.50;0.90;;;;;;;;;;5037563;28;20232;-82
2023/04/01 05:54:39;;;;;;;1.25;0.70;;;;;;;;;;5038018;28;20419;-82
2023/04/01 05:57:05;;;;;;;2.13;0.73;;;;;;;;;;5038047;28;20185;-82
2023/04/01 05:59:31;;;;;;;1.10;0.93;;;;;;;;;;5037482;28;20414;-82
2023/04/01 06:01:57;;;;;;;2.40;1.00;;;;;;;;;;5037584;28;20455;-82
2023/04/01 06:04:25;;;;;;;1.85;1.10;;;;;;;;;;5037317;28;20433;-82
2023/04/01 06:06:51;;;;;;;2.47;1.13;;;;;;;;;;5036887;28;20184;-82
2023/04/01 06:09:25;;;;;;;1.02;0.80;;;;;;;;;;5037050;28;20201;-81
2023/04/01 06:12:20;;;;;;;1.20;0.85;;;;;;;;;;5036839;28;20170;-83
2023/04/01 06:15:05;;;;;;;1.27;0.95;;;;;;;;;;5020767;28;20269;-81
2023/04/01 06:17:50;;;;;;;1.08;0.95;;;;;;;;;;5037835;28;20228;-82
2023/04/01 06:20:25;;;;;;;2.22;1.17;;;;;;;;;;5037563;28;20178;-82
2023/04/01 06:23:06;;;;;;;1.98;1.30;;;;;;;;;;5037406;28;20173;-87
2023/04/01 06:25:32;;;;;;;5.03;1.10;;;;;;;;;;5037678;28;20177;-81
2023/04/01 06:28:04;;;;;;;1.45;1.10;;;;;;;;;;5037118;28;20507;-81
2023/04/01 06:30:41;;;;;;;4.00;1.67;;;;;;;;;;5037369;28;20610;-81
2023/04/01 06:33:22;;;;;;;1.95;1.40;;;;;;;;;;5036859;28;20197;-81
2023/04/01 06:36:00;;;;;;;3.00;1.27;;;;;;;;;;5019097;28;20182;-81
2023/04/01 06:38:32;;;;;;;3.63;1.33;;;;;;;;;;5036853;28;20191;-81
2023/04/01 06:40:58;;;;;;;2.13;1.67;;;;;;;;;;5036504;28;20265;-81
2023/04/01 06:43:33;;;;;;;2.53;2.07;;;;;;;;;;5036085;28;20208;-82
2023/04/01 06:46:06;;;;;;;1.98;1.70;;;;;;;;;;5036925;28;20413;-82
2023/04/01 06:48:41;;;;;;;3.42;1.90;;;;;;;;;;5036658;28;20210;-82
2023/04/01 06:51:10;;;;;;;5.50;2.10;;;;;;;;;;5036419;28;20176;-82
2023/04/01 06:53:45;;;;;;;6.13;2.00;;;;;;;;;;5036980;28;20313;-82
2023/04/01 06:56:16;;;;;;;2.35;1.60;;;;;;;;;;5036217;28;20174;-82
2023/04/01 06:58:45;;;;;;;1.80;1.55;;;;;;;;;;5018589;28;20182;-82
2023/04/01 07:01:15;;;;;;;4.97;1.38;;;;;;;;;;5036089;28;20244;-83
2023/04/01 07:03:43;;;;;;;6.68;2.15;;;;;;;;;;5036227;28;20251;-82
2023/04/01 07:06:13;;;;;;;1.73;1.48;;;;;;;;;;5036152;28;20181;-82
2023/04/01 07:08:41;;;;;;;1.95;1.63;;;;;;;;;;5036206;28;20229;-82
2023/04/01 07:11:09;;;;;;;2.50;1.75;;;;;;;;;;5035934;28;20692;-82
2023/04/01 07:13:41;;;;;;;3.20;1.40;;;;;;;;;;5036121;28;20269;-82
2023/04/01 07:16:11;;;;;;;5.65;1.55;;;;;;;;;;5035877;28;20249;-82
2023/04/01 07:18:40;;;;;;;1.83;1.67;;;;;;;;;;5035774;28;20185;-82
2023/04/01 07:21:11;;;;;;;3.65;1.80;;;;;;;;;;5035555;28;20171;-82
2023/04/01 07:23:39;;;;;;;2.05;1.80;;;;;;;;;;5016632;28;20729;-82
2023/04/01 07:26:11;;;;;;;7.40;1.70;;;;;;;;;;5029306;28;20188;-82
2023/04/01 07:28:37;;;;;;;1.50;1.33;;;;;;;;;;5035546;28;20237;-82
2023/04/01 07:31:03;;;;;;;1.73;1.47;;;;;;;;;;5035607;28;20538;-83
2023/04/01 07:33:44;;;;;;;2.73;1.33;;;;;;;;;;5036270;28;20405;-83
2023/04/01 07:36:18;;;;;;;3.35;1.50;;;;;;;;;;5036226;28;20405;-83
2023/04/01 07:38:59;;;;;;;2.00;1.50;;;;;;;;;;5036238;28;20188;-86
2023/04/01 07:41:33;;;;;;;3.13;1.58;;;;;;;;;;5035593;28;20181;-88
2023/04/01 07:44:05;;;;;;;1.50;1.40;;;;;;;;;;5035283;28;20181;-85
2023/04/01 07:46:31;;;;;;;2.05;1.30;;;;;;;;;;5035618;28;20185;-87
2023/04/01 07:49:15;;;;;;;1.20;1.10;;;;;;;;;;5035643;28;20205;-85
2023/04/01 07:51:47;;;;;;;1.60;1.40;;;;;;;;;;5034918;28;20409;-85
2023/04/01 07:54:19;;;;;;;1.60;1.30;;;;;;;;;;5035352;28;20182;-82
2023/04/01 07:57:05;;;;;;;1.40;1.30;;;;;;;;;;5036112;28;20170;-81
2023/04/01 07:59:45;;;;;;;1.15;1.05;;;;;;;;;;5035738;28;20174;-82
2023/04/01 08:02:26;;;;;;;2.55;1.90;;;;;;;;;;5035698;28;20570;-82
2023/04/01 08:05:04;;;;;;;1.63;1.45;;;;;;;;;;5036093;28;20166;-81
2023/04/01 08:07:40;;;;;;;3.38;1.42;;;;;;;;;;5036685;28;20181;-81
2023/04/01 08:10:21;;;;;;;1.50;1.40;;;;;;;;;;5035672;28;20321;-81
2023/04/01 08:12:47;;;;;;;1.45;1.35;;;;;;;;;;5035732;28;20166;-81
2023/04/01 08:15:21;;;;;;;2.53;1.60;;;;;;;;;;5035391;28;20175;-81
2023/04/01 08:18:05;;;;;;;1.15;1.02;;;;;;;;;;5035898;28;20397;-82
2023/04/01 08:20:35;;;;;;;1.73;1.52;;;;;;;;;;5035690;28;20182;-82
2023/04/01 08:23:08;;;;;;;2.47;1.33;;;;;;;;;;5035460;28;20188;-82
2023/04/01 08:25:34;;;;;;;1.83;1.23;;;;;;;;;;5035210;28;20178;-82
2023/04/01 08:28:04;;;;;;;1.30;1.20;;;;;;;;;;5035107;28;20170;-81
2023/04/01 08:30:33;;;;;;;1.30;1.20;;;;;;;;;;5035762;28;20178;-81
2023/04/01 08:33:01;;;;;;;2.50;1.30;;;;;;;;;;5035104;28;20181;-85
2023/04/01 08:35:32;;;;;;;2.15;1.30;;;;;;;;;;5034914;28;20202;-82
2023/04/01 08:38:02;;;;;;;1.05;0.77;;;;;;;;;;5034658;28;20589;-86
2023/04/01 08:40:47;;;;;;;2.35;1.38;;;;;;;;;;5034564;28;20174;-82
2023/04/01 08:43:31;;;;;;;1.50;1.10;;;;;;;;;;5035085;28;20228;-82
2023/04/01 08:46:09;;;;;;;2.05;1.60;;;;;;;;;;5035248;28;20182;-82
2023/04/01 08:48:40;;;;;;;1.42;1.08;;;;;;;;;;5039017;28;20211;-81
2023/04/01 08:51:09;;;;;;;1.60;1.40;;;;;;;;;;5035824;28;20484;-82
2023/04/01 08:53:44;;;;;;;1.73;1.40;;;;;;;;;;5035234;28;20174;-82
2023/04/01 08:56:27;;;;;;;2.13;1.23;;;;;;;;;;5034801;28;20176;-82
2023/04/01 08:58:53;;;;;;;2.00;1.80;;;;;;;;;;5035250;28;20582;-82
2023/04/01 09:01:25;;;;;;;1.40;1.30;;;;;;;;;;5034286;28;20238;-82
2023/04/01 09:03:51;;;;;;;1.70;1.52;;;;;;;;;;5034927;28;20448;-82
2023/04/01 09:06:20;;;;;;;1.70;1.60;;;;;;;;;;5034915;28;20174;-81
2023/04/01 09:09:09;;;;;;;1.88;1.45;;;;;;;;;;5035098;28;20563;-82
2023/04/01 09:11:53;;;;;;;1.50;1.20;;;;;;;;;;5017626;28;20178;-81
2023/04/01 09:14:31;;;;;;;2.20;1.40;;;;;;;;;;5143921;22;20203;-80
2023/04/01 09:17:36;;;;;;;2.97;1.10;;;;;;;;;;5035219;28;20177;-80
2023/04/01 09:20:28;;;;;;;1.67;1.23;;;;;;;;;;5012591;28;20209;-83
2023/04/01 09:23:03;;;;;;;1.00;0.90;;;;;;;;;;5013194;28;20674;-80
2023/04/01 09:25:31;;;;;;;1.20;1.10;;;;;;;;;;5029012;28;20185;-80
2023/04/01 09:28:03;;;;;;;4.22;1.45;;;;;;;;;;5035118;28;20167;-80
2023/04/01 09:30:39;;;;;;;1.75;1.63;;;;;;;;;;5035428;28;20232;-80
2023/04/01 09:33:17;;;;;;;2.33;1.88;;;;;;;;;;5034544;28;20273;-81
2023/04/01 09:35:46;;;;;;;1.50;1.40;;;;;;;;;;5034928;28;20186;-80
2023/04/01 09:38:20;;;;;;;1.23;1.13;;;;;;;;;;5034468;28;20166;-80
2023/04/01 09:40:46;;;;;;;2.40;2.00;;;;;;;;;;5035429;28;20170;-80
2023/04/01 09:43:27;;;;;;;1.40;1.30;;;;;;;;;;5034578;28;20167;-80
2023/04/01 09:46:25;;;;;;;1.10;1.00;;;;;;;;;;5035154;28;20424;-79
2023/04/01 09:48:57;;;;;;;1.10;1.00;;;;;;;;;;5022789;28;20222;-79
2023/04/01 09:51:23;;;;;;;1.60;1.50;;;;;;;;;;5037525;28;20288;-79
2023/04/01 09:54:09;;;;;;;1.98;1.70;;;;;;;;;;5041311;28;20216;-79
2023/04/01 09:56:55;;;;;;;1.50;1.10;;;;;;;;;;5038511;28;20202;-78
2023/04/01 09:59:24;;;;;;;2.15;1.10;;;;;;;;;;5038464;28;20235;-79
2023/04/01 10:01:59;;;;;;;1.40;1.30;;;;;;;;;;5039291;28;20170;-79
2023/04/01 10:04:44;;;;;;;1.50;1.30;;;;;;;;;;5038427;28;20174;-79
2023/04/01 10:07:19;;;;;;;2.15;1.30;;;;;;;;;;5037784;28;20186;-79
2023/04/01 10:09:45;;;;;;;1.70;1.17;;;;;;;;;;5038523;28;20282;-79
2023/04/01 10:12:16;;;;;;;1.80;1.37;;;;;;;;;;5038347;28;20182;-79
2023/04/01 10:14:42;;;;;;;2.20;1.75;;;;;;;;;;5038361;28;20472;-79
2023/04/01 10:17:08;;;;;;;1.90;1.70;;;;;;;;;;5039042;28;20220;-79
2023/04/01 10:19:54;;;;;;;1.90;1.80;;;;;;;;;;5038850;28;20409;-79
2023/04/01 10:22:26;;;;;;;2.17;1.98;;;;;;;;;;5038051;28;20416;-79
2023/04/01 10:25:03;;;;;;;1.92;1.83;;;;;;;;;;5038743;28;20584;-78
2023/04/01 10:27:47;;;;;;;2.05;1.55;;;;;;;;;;5038377;28;20703;-79
2023/04/01 10:30:32;;;;;;;3.70;2.40;;;;;;;;;;5037700;28;20213;-79
2023/04/01 10:33:20;;;;;;;1.70;1.60;;;;;;;;;;5038044;28;20182;-79
2023/04/01 10:35:58;;;;;;;2.17;1.88;;;;;;;;;;5037918;28;20174;-79
2023/04/01 10:38:24;;;;;;;2.00;1.80;;;;;;;;;;5038192;28;20293;-79
2023/04/01 10:40:53;;;;;;;2.20;1.70;;;;;;;;;;5038010;28;20196;-79
2023/04/01 10:43:25;;;;;;;1.23;1.00;;;;;;;;;;5038206;28;20201;-79
2023/04/01 10:45:55;;;;;;;1.30;1.20;;;;;;;;;;5038162;28;20209;-79
2023/04/01 10:48:25;;;;;;;3.20;1.42;;;;;;;;;;5037630;28;20541;-80
2023/04/01 10:51:09;;;;;;;1.60;1.50;;;;;;;;;;5037850;28;20213;-79
2023/04/01 10:53:43;;;;;;;1.30;1.20;;;;;;;;;;5037664;28;20186;-80
2023/04/01 10:56:09;;;;;;;1.90;1.80;;;;;;;;;;5037388;28;20185;-81
2023/04/01 10:58:58;;;;;;;1.50;1.40;;;;;;;;;;5037522;28;20178;-80
2023/04/01 11:01:46;;;;;;;1.40;1.30;;;;;;;;;;5026172;28;20639;-80
2023/04/01 11:04:31;;;;;;;1.80;1.70;;;;;;;;;;5036264;28;20170;-83
2023/04/01 11:07:22;;;;;;;2.03;1.60;;;;;;;;;;5036735;28;20182;-82
2023/04/01 11:10:07;;;;;;;1.60;1.30;;;;;;;;;;5036723;28;20204;-83
2023/04/01 11:12:56;;;;;;;1.67;1.30;;;;;;;;;;5036319;28;20185;-84
2023/04/01 11:15:41;;;;;;;1.50;1.38;;;;;;;;;;5032297;28;20256;-82
2023/04/01 11:18:25;;;;;;;1.60;1.13;;;;;;;;;;5037114;28;20200;-81
2023/04/01 11:21:10;;;;;;;1.58;1.35;;;;;;;;;;5036995;28;20170;-80
2023/04/01 11:23:40;;;;;;;1.48;1.38;;;;;;;;;;5037125;28;20184;-81
2023/04/01 11:26:35;;;;;;;2.63;2.42;;;;;;;;;;5037103;28;20185;-81
2023/04/01 11:29:20;;;;;;;1.50;1.30;;;;;;;;;;5032072;28;20673;-81
2023/04/01 11:32:06;;;;;;;2.28;1.75;;;;;;;;;;5038172;28;20268;-80
2023/04/01 11:34:50;;;;;;;2.75;1.98;;;;;;;;;;5037411;28;20190;-82
2023/04/01 11:37:35;;;;;;;1.60;1.50;;;;;;;;;;5036608;28;20185;-82
2023/04/01 11:40:04;;;;;;;2.10;1.75;;;;;;;;;;5036406;28;20170;-80
2023/04/01 11:42:43;;;;;;;1.90;1.70;;;;;;;;;;5036048;28;20634;-81
2023/04/01 11:45:18;;;;;;;2.60;1.75;;;;;;;;;;5036727;28;20224;-81
2023/04/01 11:47:47;;;;;;;2.00;1.90;;;;;;;;;;5036386;28;20701;-81
2023/04/01 11:50:25;;;;;;;1.70;1.60;;;;;;;;;;5036277;28;20210;-81
2023/04/01 11:52:51;;;;;;;5.10;1.73;;;;;;;;;;5036958;28;20525;-80
2023/04/01 11:55:25;;;;;;;1.87;1.77;;;;;;;;;;5036238;28;20174;-80
2023/04/01 11:57:51;;;;;;;1.17;1.08;;;;;;;;;;5035897;28;20913;-80
2023/04/01 12:00:23;;;;;;;1.70;1.60;;;;;;;;;;5036233;28;20197;-80
2023/04/01 12:03:06;;;;;;;1.63;1.52;;;;;;;;;;5036667;28;20183;-79
2023/04/01 12:05:38;;;;;;;2.45;1.63;;;;;;;;;;5036688;28;20605;-79
2023/04/01 12:08:11;;;;;;;2.05;1.85;;;;;;;;;;5036082;28;20174;-80
2023/04/01 12:10:45;;;;;;;1.50;1.40;;;;;;;;;;5036103;28;20248;-81
2023/04/01 12:13:17;;;;;;;1.60;1.42;;;;;;;;;;5036256;28;20226;-84
2023/04/01 12:15:56;;;;;;;1.33;1.23;;;;;;;;;;5035787;28;20241;-80
2023/04/01 12:18:28;;;;;;;1.25;1.15;;;;;;;;;;5035929;28;20181;-81
2023/04/01 12:20:54;;;;;;;1.38;1.25;;;;;;;;;;5036045;28;20174;-81
2023/04/01 12:23:36;;;;;;;1.53;1.43;;;;;;;;;;5035513;28;20236;-81
2023/04/01 12:26:11;;;;;;;1.48;1.33;;;;;;;;;;5035885;28;20933;-81
2023/04/01 12:28:37;;;;;;;2.20;1.20;;;;;;;;;;5035377;28;20229;-81
2023/04/01 12:31:23;;;;;;;1.17;1.07;;;;;;;;;;5035894;28;20186;-82
2023/04/01 12:33:55;;;;;;;1.73;1.63;;;;;;;;;;5035742;28;20404;-81
2023/04/01 12:36:41;;;;;;;1.48;1.30;;;;;;;;;;5035404;28;20213;-80
2023/04/01 12:39:18;;;;;;;1.55;1.40;;;;;;;;;;5035391;28;20201;-79
2023/04/01 12:41:47;;;;;;;1.73;1.63;;;;;;;;;;5035510;28;20193;-80
2023/04/01 12:44:21;;;;;;;1.30;1.20;;;;;;;;;;5035479;28;20532;-83
2023/04/01 12:46:47;;;;;;;1.35;1.25;;;;;;;;;;5035984;28;20155;-80
2023/04/01 12:49:29;;;;;;;1.70;1.60;;;;;;;;;;5036033;28;20608;-82
2023/04/01 12:52:05;;;;;;;1.67;1.58;;;;;;;;;;5035847;28;20817;-79
2023/04/01 12:54:34;;;;;;;1.75;1.65;;;;;;;;;;5035983;28;20557;-79
2023/04/01 12:57:18;;;;;;;3.97;1.77;;;;;;;;;;5036043;28;20177;-80
2023/04/01 13:00:03;;;;;;;1.80;1.70;;;;;;;;;;5035717;28;20711;-80
2023/04/01 13:02:48;;;;;;;1.70;1.60;;;;;;;;;;5035487;28;20241;-79
2023/04/01 13:05:32;;;;;;;1.60;1.48;;;;;;;;;;5035869;28;20174;-79
2023/04/01 13:08:02;;;;;;;1.33;1.23;;;;;;;;;;5035657;28;20178;-79
2023/04/01 13:10:47;;;;;;;1.80;1.70;;;;;;;;;;5035514;28;20197;-78
2023/04/01 13:13:35;;;;;;;1.83;1.73;;;;;;;;;;5039431;28;20190;-79
2023/04/01 13:16:00;;;;;;;2.13;1.92;;;;;;;;;;5036051;28;20234;-79
2023/04/01 13:18:26;;;;;;;2.30;2.10;;;;;;;;;;5035476;28;20175;-80
2023/04/01 13:21:05;;;;;;;2.00;1.90;;;;;;;;;;5035737;28;20555;-80
2023/04/01 13:23:50;;;;;;;2.10;2.00;;;;;;;;;;5034956;28;20404;-80
2023/04/01 13:26:19;;;;;;;2.22;2.05;;;;;;;;;;5038115;28;20182;-82
2023/04/01 13:28:59;;;;;;;2.58;2.38;;;;;;;;;;5039312;28;20220;-79
2023/04/01 13:31:34;;;;;;;2.13;1.92;;;;;;;;;;5039516;28;20202;-79
2023/04/01 13:34:09;;;;;;;2.60;2.40;;;;;;;;;;5039436;28;20247;-79
2023/04/01 13:36:54;;;;;;;2.58;2.38;;;;;;;;;;5039069;28;20166;-79
2023/04/01 13:39:32;;;;;;;2.05;1.88;;;;;;;;;;5039031;28;20235;-80
2023/04/01 13:42:17;;;;;;;2.60;2.40;;;;;;;;;;5039278;28;20174;-79
2023/04/01 13:44:52;;;;;;;3.03;2.72;;;;;;;;;;5039840;28;20186;-79
2023/04/01 13:47:24;;;;;;;2.65;2.45;;;;;;;;;;5039137;28;20692;-80
2023/04/01 13:50:02;;;;;;;2.22;2.03;;;;;;;;;;5038991;28;20682;-79
2023/04/01 13:52:42;;;;;;;2.55;2.35;;;;;;;;;;5038684;28;20167;-79
2023/04/01 13:55:23;;;;;;;3.05;2.60;;;;;;;;;;5039181;28;20170;-79
2023/04/01 13:58:07;;;;;;;3.38;2.85;;;;;;;;;;5039190;28;20197;-78
2023/04/01 14:00:36;;;;;;;5.18;3.05;;;;;;;;;;5044092;28;20177;-79
2023/04/01 14:03:02;;;;;;;2.33;2.15;;;;;;;;;;5048306;28;20182;-79
2023/04/01 14:05:37;;;;;;;3.33;2.87;;;;;;;;;;5046606;28;20176;-79
2023/04/01 14:08:06;;;;;;;4.20;2.00;;;;;;;;;;5047338;28;20428;-79
2023/04/01 14:10:40;;;;;;;2.88;2.58;;;;;;;;;;5043371;28;20308;-79
2023/04/01 14:13:12;;;;;;;3.95;3.60;;;;;;;;;;5043419;28;20547;-79
2023/04/01 14:15:38;;;;;;;2.70;2.50;;;;;;;;;;5045161;28;20284;-79
2023/04/01 14:18:16;;;;;;;2.65;2.13;;;;;;;;;;5046853;28;20205;-80
2023/04/01 14:20:51;;;;;;;1.98;1.80;;;;;;;;;;5054917;28;20257;-79
2023/04/01 14:23:36;;;;;;;1.40;1.20;;;;;;;;;;5043853;28;20177;-79
2023/04/01 14:26:14;;;;;;;2.67;1.73;;;;;;;;;;5046606;28;20525;-79
2023/04/01 14:28:54;;;;;;;1.75;1.65;;;;;;;;;;5042481;28;20260;-80
2023/04/01 14:31:39;;;;;;;2.10;1.90;;;;;;;;;;5056485;28;20189;-81
2023/04/01 14:34:11;;;;;;;2.30;2.10;;;;;;;;;;5058120;28;20181;-80
2023/04/01 14:36:49;;;;;;;2.63;2.20;;;;;;;;;;5058329;28;20223;-78
2023/04/01 14:39:21;;;;;;;2.10;2.00;;;;;;;;;;5057952;28;20180;-79
2023/04/01 14:42:06;;;;;;;1.90;1.80;;;;;;;;;;5056287;28;20177;-79
2023/04/01 14:44:50;;;;;;;2.40;2.20;;;;;;;;;;5046059;28;20178;-81
2023/04/01 14:47:35;;;;;;;3.70;1.92;;;;;;;;;;5039384;28;20229;-79
2023/04/01 14:50:21;;;;;;;2.30;2.10;;;;;;;;;;5048253;28;20209;-79
2023/04/01 14:52:58;;;;;;;2.15;1.95;;;;;;;;;;5038302;28;20192;-79
2023/04/01 14:55:33;;;;;;;1.70;1.60;;;;;;;;;;5037947;28;20170;-79
2023/04/01 14:58:19;;;;;;;1.85;1.75;;;;;;;;;;5038134;28;20190;-79
2023/04/01 15:00:50;;;;;;;2.78;2.33;;;;;;;;;;5037473;28;20177;-78
2023/04/01 15:03:23;;;;;;;6.88;1.80;;;;;;;;;;5038014;28;20174;-79
2023/04/01 15:06:07;;;;;;;3.40;2.30;;;;;;;;;;5037961;28;20551;-79
2023/04/01 15:08:37;;;;;;;2.60;2.40;;;;;;;;;;5037138;28;20166;-79
2023/04/01 15:11:22;;;;;;;3.40;2.25;;;;;;;;;;5037397;28;20186;-79
2023/04/01 15:13:54;;;;;;;3.35;3.05;;;;;;;;;;5037290;28;20237;-78
2023/04/01 15:16:25;;;;;;;3.28;2.97;;;;;;;;;;5037793;28;20226;-80